sensor_id;sensor_type;location;lat;lon;timestamp;temperature;humidity
75994;DHT22;64680;53.800;9.988;2023-12-20T00:01:22;4.00;99.90
75994;DHT22;64680;53.800;9.988;2023-12-20T00:03:48;3.90;99.90
75994;DHT22;64680;53.800;9.988;2023-12-20T00:06:13;3.90;99.90
75994;DHT22;64680;53.800;9.988;2023-12-20T00:08:39;3.90;99.90
75994;DHT22;64680;53.800;9.988;2023-12-20T00:11:04;3.90;99.90
75994;DHT22;64680;53.800;9.988;2023-12-20T00:13:30;3.80;99.90
75994;DHT22;64680;53.800;9.988;2023-12-20T00:15:56;3.80;99.90
75994;DHT22;64680;53.800;9.988;2023-12-20T00:18:21;3.80;99.90
75994;DHT22;64680;53.800;9.988;2023-12-20T00:20:47;3.80;99.90
75994;DHT22;64680;53.800;9.988;2023-12-20T00:23:13;3.80;99.90
75994;DHT22;64680;53.800;9.988;2023-12-20T00:25:38;3.80;99.90
75994;DHT22;64680;53.800;9.988;2023-12-20T00:28:04;3.90;99.90
75994;DHT22;64680;53.800;9.988;2023-12-20T00:30:30;3.80;99.90
75994;DHT22;64680;53.800;9.988;2023-12-20T00:32:58;3.90;99.90
75994;DHT22;64680;53.800;9.988;2023-12-20T00:35:23;3.90;99.90
75994;DHT22;64680;53.800;9.988;2023-12-20T00:37:49;3.90;99.90
75994;DHT22;64680;53.800;9.988;2023-12-20T00:40:15;3.90;99.90
75994;DHT22;64680;53.800;9.988;2023-12-20T00:42:41;3.90;99.90
75994;DHT22;64680;53.800;9.988;2023-12-20T00:45:07;3.90;99.90
75994;DHT22;64680;53.800;9.988;2023-12-20T00:47:32;3.90;99.90
75994;DHT22;64680;53.800;9.988;2023-12-20T00:49:58;3.90;99.90
75994;DHT22;64680;53.800;9.988;2023-12-20T00:52:24;3.90;99.90
75994;DHT22;64680;53.800;9.988;2023-12-20T00:54:49;3.90;99.90
75994;DHT22;64680;53.800;9.988;2023-12-20T00:57:15;3.90;99.90
75994;DHT22;64680;53.800;9.988;2023-12-20T00:59:41;3.90;99.90
75994;DHT22;64680;53.800;9.988;2023-12-20T01:02:06;3.90;99.90
75994;DHT22;64680;53.800;9.988;2023-12-20T01:04:32;3.90;99.90
75994;DHT22;64680;53.800;9.988;2023-12-20T01:06:58;3.90;99.90
75994;DHT22;64680;53.800;9.988;2023-12-20T01:09:23;3.80;99.90
75994;DHT22;64680;53.800;9.988;2023-12-20T01:11:55;3.80;99.90
75994;DHT22;64680;53.800;9.988;2023-12-20T01:14:20;3.80;99.90
75994;DHT22;64680;53.800;9.988;2023-12-20T01:16:47;3.80;99.90
75994;DHT22;64680;53.800;9.988;2023-12-20T01:19:13;3.80;99.90
75994;DHT22;64680;53.800;9.988;2023-12-20T01:21:39;3.80;99.90
75994;DHT22;64680;53.800;9.988;2023-12-20T01:24:05;3.80;99.90
75994;DHT22;64680;53.800;9.988;2023-12-20T01:26:31;3.70;99.90
75994;DHT22;64680;53.800;9.988;2023-12-20T01:28:57;3.70;99.90
75994;DHT22;64680;53.800;9.988;2023-12-20T01:31:22;3.70;99.90
75994;DHT22;64680;53.800;9.988;2023-12-20T01:33:48;3.70;99.90
75994;DHT22;64680;53.800;9.988;2023-12-20T01:36:13;3.80;99.90
75994;DHT22;64680;53.800;9.988;2023-12-20T01:38:39;3.80;99.90
75994;DHT22;64680;53.800;9.988;2023-12-20T01:41:04;3.80;99.90
75994;DHT22;64680;53.800;9.988;2023-12-20T01:43:30;3.90;99.90
75994;DHT22;64680;53.800;9.988;2023-12-20T01:45:59;3.90;99.90
75994;DHT22;64680;53.800;9.988;2023-12-20T01:48:25;4.00;99.90
75994;DHT22;64680;53.800;9.988;2023-12-20T01:50:52;4.10;99.90
75994;DHT22;64680;53.800;9.988;2023-12-20T01:53:20;4.10;99.90
75994;DHT22;64680;53.800;9.988;2023-12-20T01:55:48;4.10;99.90
75994;DHT22;64680;53.800;9.988;2023-12-20T01:58:15;4.20;99.90
75994;DHT22;64680;53.800;9.988;2023-12-20T02:00:41;4.20;99.90
75994;DHT22;64680;53.800;9.988;2023-12-20T02:03:07;4.20;99.90
75994;DHT22;64680;53.800;9.988;2023-12-20T02:05:35;4.20;99.90
75994;DHT22;64680;53.800;9.988;2023-12-20T02:08:01;4.20;99.90
75994;DHT22;64680;53.800;9.988;2023-12-20T02:10:27;4.20;99.90
75994;DHT22;64680;53.800;9.988;2023-12-20T02:12:54;4.20;99.90
75994;DHT22;64680;53.800;9.988;2023-12-20T02:15:20;4.20;99.90
75994;DHT22;64680;53.800;9.988;2023-12-20T02:17:47;4.20;99.90
75994;DHT22;64680;53.800;9.988;2023-12-20T02:20:13;4.20;99.90
75994;DHT22;64680;53.800;9.988;2023-12-20T02:22:39;4.30;99.90
75994;DHT22;64680;53.800;9.988;2023-12-20T02:25:04;4.30;99.90
75994;DHT22;64680;53.800;9.988;2023-12-20T02:27:30;4.40;99.90
75994;DHT22;64680;53.800;9.988;2023-12-20T02:29:56;4.40;99.90
75994;DHT22;64680;53.800;9.988;2023-12-20T02:32:22;4.40;99.90
75994;DHT22;64680;53.800;9.988;2023-12-20T02:34:51;4.40;99.90
75994;DHT22;64680;53.800;9.988;2023-12-20T02:37:17;4.50;99.90
75994;DHT22;64680;53.800;9.988;2023-12-20T02:39:42;4.50;99.90
75994;DHT22;64680;53.800;9.988;2023-12-20T02:42:08;4.50;99.90
75994;DHT22;64680;53.800;9.988;2023-12-20T02:44:33;4.50;99.90
75994;DHT22;64680;53.800;9.988;2023-12-20T02:46:59;4.50;99.90
75994;DHT22;64680;53.800;9.988;2023-12-20T02:49:25;4.50;99.90
75994;DHT22;64680;53.800;9.988;2023-12-20T02:51:50;4.50;99.90
75994;DHT22;64680;53.800;9.988;2023-12-20T02:54:16;4.50;99.90
75994;DHT22;64680;53.800;9.988;2023-12-20T02:56:41;4.50;99.90
75994;DHT22;64680;53.800;9.988;2023-12-20T02:59:07;4.50;99.90
75994;DHT22;64680;53.800;9.988;2023-12-20T03:01:34;4.50;99.90
75994;DHT22;64680;53.800;9.988;2023-12-20T03:04:00;4.50;99.90
75994;DHT22;64680;53.800;9.988;2023-12-20T03:06:26;4.50;99.90
75994;DHT22;64680;53.800;9.988;2023-12-20T03:08:51;4.50;99.90
75994;DHT22;64680;53.800;9.988;2023-12-20T03:11:17;4.50;98.50
75994;DHT22;64680;53.800;9.988;2023-12-20T03:13:43;4.50;98.60
75994;DHT22;64680;53.800;9.988;2023-12-20T03:16:13;4.50;97.90
75994;DHT22;64680;53.800;9.988;2023-12-20T03:18:38;4.50;98.00
75994;DHT22;64680;53.800;9.988;2023-12-20T03:21:04;4.50;97.50
75994;DHT22;64680;53.800;9.988;2023-12-20T03:23:30;4.50;97.70
75994;DHT22;64680;53.800;9.988;2023-12-20T03:25:58;4.50;99.30
75994;DHT22;64680;53.800;9.988;2023-12-20T03:28:24;4.50;99.20
75994;DHT22;64680;53.800;9.988;2023-12-20T03:30:49;4.50;99.90
75994;DHT22;64680;53.800;9.988;2023-12-20T03:33:15;4.50;99.90
75994;DHT22;64680;53.800;9.988;2023-12-20T03:35:41;4.50;99.90
75994;DHT22;64680;53.800;9.988;2023-12-20T03:38:07;4.60;99.90
75994;DHT22;64680;53.800;9.988;2023-12-20T03:40:33;4.60;99.50
75994;DHT22;64680;53.800;9.988;2023-12-20T03:42:58;4.60;98.90
75994;DHT22;64680;53.800;9.988;2023-12-20T03:45:24;4.60;98.30
75994;DHT22;64680;53.800;9.988;2023-12-20T03:47:50;4.60;98.70
75994;DHT22;64680;53.800;9.988;2023-12-20T03:50:21;4.60;96.00
75994;DHT22;64680;53.800;9.988;2023-12-20T03:52:47;4.60;95.10
75994;DHT22;64680;53.800;9.988;2023-12-20T03:55:12;4.60;95.00
75994;DHT22;64680;53.800;9.988;2023-12-20T03:57:38;4.60;94.50
75994;DHT22;64680;53.800;9.988;2023-12-20T04:00:04;4.60;94.10
75994;DHT22;64680;53.800;9.988;2023-12-20T04:02:30;4.60;94.40
75994;DHT22;64680;53.800;9.988;2023-12-20T04:04:56;4.60;93.30
75994;DHT22;64680;53.800;9.988;2023-12-20T04:07:22;4.70;93.30
75994;DHT22;64680;53.800;9.988;2023-12-20T04:09:47;4.70;92.20
75994;DHT22;64680;53.800;9.988;2023-12-20T04:12:13;4.70;92.40
75994;DHT22;64680;53.800;9.988;2023-12-20T04:14:39;4.70;92.70
75994;DHT22;64680;53.800;9.988;2023-12-20T04:17:04;4.70;92.90
75994;DHT22;64680;53.800;9.988;2023-12-20T04:19:30;4.70;92.70
75994;DHT22;64680;53.800;9.988;2023-12-20T04:21:55;4.70;93.20
75994;DHT22;64680;53.800;9.988;2023-12-20T04:24:21;4.70;92.10
75994;DHT22;64680;53.800;9.988;2023-12-20T04:26:47;4.70;92.70
75994;DHT22;64680;53.800;9.988;2023-12-20T04:29:13;4.70;91.30
75994;DHT22;64680;53.800;9.988;2023-12-20T04:31:38;4.70;91.60
75994;DHT22;64680;53.800;9.988;2023-12-20T04:34:04;4.70;92.60
75994;DHT22;64680;53.800;9.988;2023-12-20T04:36:29;4.70;93.90
75994;DHT22;64680;53.800;9.988;2023-12-20T04:38:55;4.70;94.00
75994;DHT22;64680;53.800;9.988;2023-12-20T04:41:21;4.80;94.60
75994;DHT22;64680;53.800;9.988;2023-12-20T04:43:46;4.70;94.30
75994;DHT22;64680;53.800;9.988;2023-12-20T04:46:12;4.80;94.60
75994;DHT22;64680;53.800;9.988;2023-12-20T04:48:37;4.80;95.10
75994;DHT22;64680;53.800;9.988;2023-12-20T04:51:03;4.80;94.60
75994;DHT22;64680;53.800;9.988;2023-12-20T04:53:28;4.80;94.50
75994;DHT22;64680;53.800;9.988;2023-12-20T04:55:54;4.80;94.30
75994;DHT22;64680;53.800;9.988;2023-12-20T04:58:19;4.80;93.90
75994;DHT22;64680;53.800;9.988;2023-12-20T05:00:45;4.90;93.30
75994;DHT22;64680;53.800;9.988;2023-12-20T05:03:11;4.90;92.10
75994;DHT22;64680;53.800;9.988;2023-12-20T05:05:36;4.80;90.90
75994;DHT22;64680;53.800;9.988;2023-12-20T05:08:02;4.80;90.30
75994;DHT22;64680;53.800;9.988;2023-12-20T05:10:28;4.90;90.50
75994;DHT22;64680;53.800;9.988;2023-12-20T05:12:53;4.90;89.70
75994;DHT22;64680;53.800;9.988;2023-12-20T05:15:19;4.90;89.50
75994;DHT22;64680;53.800;9.988;2023-12-20T05:17:44;4.90;88.30
75994;DHT22;64680;53.800;9.988;2023-12-20T05:20:10;4.90;88.80
75994;DHT22;64680;53.800;9.988;2023-12-20T05:22:36;4.90;89.70
75994;DHT22;64680;53.800;9.988;2023-12-20T05:25:01;4.90;89.10
75994;DHT22;64680;53.800;9.988;2023-12-20T05:27:27;5.00;87.40
75994;DHT22;64680;53.800;9.988;2023-12-20T05:29:53;4.90;86.70
75994;DHT22;64680;53.800;9.988;2023-12-20T05:32:23;4.90;88.90
75994;DHT22;64680;53.800;9.988;2023-12-20T05:34:48;4.80;89.80
75994;DHT22;64680;53.800;9.988;2023-12-20T05:37:14;4.80;90.80
75994;DHT22;64680;53.800;9.988;2023-12-20T05:39:39;4.70;93.30
75994;DHT22;64680;53.800;9.988;2023-12-20T05:42:05;4.70;95.10
75994;DHT22;64680;53.800;9.988;2023-12-20T05:44:33;4.80;97.20
75994;DHT22;64680;53.800;9.988;2023-12-20T05:46:58;4.80;97.30
75994;DHT22;64680;53.800;9.988;2023-12-20T05:49:24;4.70;98.60
75994;DHT22;64680;53.800;9.988;2023-12-20T05:51:50;4.70;99.10
75994;DHT22;64680;53.800;9.988;2023-12-20T05:54:16;4.70;99.90
75994;DHT22;64680;53.800;9.988;2023-12-20T05:56:42;4.70;99.90
75994;DHT22;64680;53.800;9.988;2023-12-20T05:59:08;4.70;99.90
75994;DHT22;64680;53.800;9.988;2023-12-20T06:01:33;4.70;99.90
75994;DHT22;64680;53.800;9.988;2023-12-20T06:03:59;4.70;99.90
75994;DHT22;64680;53.800;9.988;2023-12-20T06:06:24;4.70;99.90
75994;DHT22;64680;53.800;9.988;2023-12-20T06:08:50;4.60;99.90
75994;DHT22;64680;53.800;9.988;2023-12-20T06:11:15;4.70;99.90
75994;DHT22;64680;53.800;9.988;2023-12-20T06:13:41;4.70;99.90
75994;DHT22;64680;53.800;9.988;2023-12-20T06:16:06;4.60;99.90
75994;DHT22;64680;53.800;9.988;2023-12-20T06:18:32;4.60;99.90
75994;DHT22;64680;53.800;9.988;2023-12-20T06:20:58;4.50;99.90
75994;DHT22;64680;53.800;9.988;2023-12-20T06:23:24;4.50;99.90
75994;DHT22;64680;53.800;9.988;2023-12-20T06:25:49;4.40;99.90
75994;DHT22;64680;53.800;9.988;2023-12-20T06:28:15;4.40;99.90
75994;DHT22;64680;53.800;9.988;2023-12-20T06:30:41;4.30;99.90
75994;DHT22;64680;53.800;9.988;2023-12-20T06:33:06;4.30;99.90
75994;DHT22;64680;53.800;9.988;2023-12-20T06:35:32;4.30;99.90
75994;DHT22;64680;53.800;9.988;2023-12-20T06:37:58;4.30;99.90
75994;DHT22;64680;53.800;9.988;2023-12-20T06:40:24;4.40;99.90
75994;DHT22;64680;53.800;9.988;2023-12-20T06:42:49;4.40;99.90
75994;DHT22;64680;53.800;9.988;2023-12-20T06:45:15;4.50;99.90
75994;DHT22;64680;53.800;9.988;2023-12-20T06:47:40;4.60;99.90
75994;DHT22;64680;53.800;9.988;2023-12-20T06:50:06;4.70;99.90
75994;DHT22;64680;53.800;9.988;2023-12-20T06:52:33;4.70;99.90
75994;DHT22;64680;53.800;9.988;2023-12-20T06:54:59;4.70;99.90
75994;DHT22;64680;53.800;9.988;2023-12-20T06:57:25;4.70;99.90
75994;DHT22;64680;53.800;9.988;2023-12-20T06:59:51;4.80;99.90
75994;DHT22;64680;53.800;9.988;2023-12-20T07:02:17;4.80;99.90
75994;DHT22;64680;53.800;9.988;2023-12-20T07:04:43;4.80;99.90
75994;DHT22;64680;53.800;9.988;2023-12-20T07:07:08;4.80;99.90
75994;DHT22;64680;53.800;9.988;2023-12-20T07:09:34;4.80;99.90
75994;DHT22;64680;53.800;9.988;2023-12-20T07:12:00;4.80;99.90
75994;DHT22;64680;53.800;9.988;2023-12-20T07:14:25;4.80;99.90
75994;DHT22;64680;53.800;9.988;2023-12-20T07:16:51;4.80;99.40
75994;DHT22;64680;53.800;9.988;2023-12-20T07:19:17;4.90;98.40
75994;DHT22;64680;53.800;9.988;2023-12-20T07:21:43;4.90;98.10
75994;DHT22;64680;53.800;9.988;2023-12-20T07:24:10;4.90;97.80
75994;DHT22;64680;53.800;9.988;2023-12-20T07:26:35;4.90;98.20
75994;DHT22;64680;53.800;9.988;2023-12-20T07:29:03;4.90;98.50
75994;DHT22;64680;53.800;9.988;2023-12-20T07:31:29;4.90;98.40
75994;DHT22;64680;53.800;9.988;2023-12-20T07:33:55;5.00;98.70
75994;DHT22;64680;53.800;9.988;2023-12-20T07:36:20;5.00;99.20
75994;DHT22;64680;53.800;9.988;2023-12-20T07:38:47;4.90;99.60
75994;DHT22;64680;53.800;9.988;2023-12-20T07:41:12;5.00;98.80
75994;DHT22;64680;53.800;9.988;2023-12-20T07:43:38;4.90;99.90
75994;DHT22;64680;53.800;9.988;2023-12-20T07:46:07;4.90;99.90
75994;DHT22;64680;53.800;9.988;2023-12-20T07:48:37;4.90;99.90
75994;DHT22;64680;53.800;9.988;2023-12-20T07:51:03;4.90;99.90
75994;DHT22;64680;53.800;9.988;2023-12-20T07:53:29;4.90;99.90
75994;DHT22;64680;53.800;9.988;2023-12-20T07:55:55;5.00;99.90
75994;DHT22;64680;53.800;9.988;2023-12-20T07:58:20;5.00;99.90
75994;DHT22;64680;53.800;9.988;2023-12-20T08:00:46;5.00;99.90
75994;DHT22;64680;53.800;9.988;2023-12-20T08:03:12;5.00;99.90
75994;DHT22;64680;53.800;9.988;2023-12-20T08:05:38;5.00;99.90
75994;DHT22;64680;53.800;9.988;2023-12-20T08:08:07;5.00;99.90
75994;DHT22;64680;53.800;9.988;2023-12-20T08:10:32;5.10;99.90
75994;DHT22;64680;53.800;9.988;2023-12-20T08:12:58;5.10;99.90
75994;DHT22;64680;53.800;9.988;2023-12-20T08:15:24;5.10;99.90
75994;DHT22;64680;53.800;9.988;2023-12-20T08:17:49;5.10;99.90
75994;DHT22;64680;53.800;9.988;2023-12-20T08:20:18;5.20;99.60
75994;DHT22;64680;53.800;9.988;2023-12-20T08:22:44;5.20;99.20
75994;DHT22;64680;53.800;9.988;2023-12-20T08:25:09;5.20;97.00
75994;DHT22;64680;53.800;9.988;2023-12-20T08:27:40;5.30;96.20
75994;DHT22;64680;53.800;9.988;2023-12-20T08:30:08;5.20;93.50
75994;DHT22;64680;53.800;9.988;2023-12-20T08:32:35;5.30;93.30
75994;DHT22;64680;53.800;9.988;2023-12-20T08:35:00;5.30;92.30
75994;DHT22;64680;53.800;9.988;2023-12-20T08:37:29;5.40;90.80
75994;DHT22;64680;53.800;9.988;2023-12-20T08:39:55;5.50;90.70
75994;DHT22;64680;53.800;9.988;2023-12-20T08:42:21;5.50;90.90
75994;DHT22;64680;53.800;9.988;2023-12-20T08:44:47;5.50;89.00
75994;DHT22;64680;53.800;9.988;2023-12-20T08:47:12;5.50;87.60
75994;DHT22;64680;53.800;9.988;2023-12-20T08:49:41;5.50;88.60
75994;DHT22;64680;53.800;9.988;2023-12-20T08:52:06;5.50;88.10
75994;DHT22;64680;53.800;9.988;2023-12-20T08:54:32;5.50;88.40
75994;DHT22;64680;53.800;9.988;2023-12-20T08:56:58;5.50;90.30
75994;DHT22;64680;53.800;9.988;2023-12-20T08:59:23;5.40;92.60
75994;DHT22;64680;53.800;9.988;2023-12-20T09:01:49;5.30;97.20
75994;DHT22;64680;53.800;9.988;2023-12-20T09:04:19;5.20;95.60
75994;DHT22;64680;53.800;9.988;2023-12-20T09:06:45;5.00;90.40
75994;DHT22;64680;53.800;9.988;2023-12-20T09:09:11;5.00;91.40
75994;DHT22;64680;53.800;9.988;2023-12-20T09:11:39;4.80;83.10
75994;DHT22;64680;53.800;9.988;2023-12-20T09:14:04;4.60;85.60
75994;DHT22;64680;53.800;9.988;2023-12-20T09:16:30;4.40;84.90
75994;DHT22;64680;53.800;9.988;2023-12-20T09:18:57;4.30;84.20
75994;DHT22;64680;53.800;9.988;2023-12-20T09:21:22;4.20;86.80
75994;DHT22;64680;53.800;9.988;2023-12-20T09:23:48;4.10;90.50
75994;DHT22;64680;53.800;9.988;2023-12-20T09:26:13;4.10;92.50
75994;DHT22;64680;53.800;9.988;2023-12-20T09:28:39;4.10;93.00
75994;DHT22;64680;53.800;9.988;2023-12-20T09:31:05;4.00;92.10
75994;DHT22;64680;53.800;9.988;2023-12-20T09:33:32;4.00;92.60
75994;DHT22;64680;53.800;9.988;2023-12-20T09:35:58;4.00;90.90
75994;DHT22;64680;53.800;9.988;2023-12-20T09:38:24;4.00;93.10
75994;DHT22;64680;53.800;9.988;2023-12-20T09:40:49;4.00;93.30
75994;DHT22;64680;53.800;9.988;2023-12-20T09:43:18;4.00;94.60
75994;DHT22;64680;53.800;9.988;2023-12-20T09:45:46;4.10;93.70
75994;DHT22;64680;53.800;9.988;2023-12-20T09:48:12;4.20;93.20
75994;DHT22;64680;53.800;9.988;2023-12-20T09:50:40;4.20;93.50
75994;DHT22;64680;53.800;9.988;2023-12-20T09:53:08;4.10;92.50
75994;DHT22;64680;53.800;9.988;2023-12-20T09:55:36;4.10;92.40
75994;DHT22;64680;53.800;9.988;2023-12-20T09:58:01;4.10;91.70
75994;DHT22;64680;53.800;9.988;2023-12-20T10:00:27;4.00;92.70
75994;DHT22;64680;53.800;9.988;2023-12-20T10:02:56;3.90;92.10
75994;DHT22;64680;53.800;9.988;2023-12-20T10:05:33;3.90;93.60
75994;DHT22;64680;53.800;9.988;2023-12-20T10:08:00;4.00;94.40
75994;DHT22;64680;53.800;9.988;2023-12-20T10:10:26;4.00;94.70
75994;DHT22;64680;53.800;9.988;2023-12-20T10:13:02;4.00;96.70
75994;DHT22;64680;53.800;9.988;2023-12-20T10:15:28;4.00;97.60
75994;DHT22;64680;53.800;9.988;2023-12-20T10:17:54;4.20;97.50
75994;DHT22;64680;53.800;9.988;2023-12-20T10:20:20;4.20;97.50
75994;DHT22;64680;53.800;9.988;2023-12-20T10:22:46;4.30;95.30
75994;DHT22;64680;53.800;9.988;2023-12-20T10:25:12;4.20;93.30
75994;DHT22;64680;53.800;9.988;2023-12-20T10:27:38;4.30;94.50
75994;DHT22;64680;53.800;9.988;2023-12-20T10:30:04;4.20;94.20
75994;DHT22;64680;53.800;9.988;2023-12-20T10:32:30;4.20;92.80
75994;DHT22;64680;53.800;9.988;2023-12-20T10:34:57;4.10;93.30
75994;DHT22;64680;53.800;9.988;2023-12-20T10:37:22;4.00;94.00
75994;DHT22;64680;53.800;9.988;2023-12-20T10:39:51;4.10;97.00
75994;DHT22;64680;53.800;9.988;2023-12-20T10:42:20;4.20;99.90
75994;DHT22;64680;53.800;9.988;2023-12-20T10:44:47;4.40;99.90
75994;DHT22;64680;53.800;9.988;2023-12-20T10:47:13;4.50;99.90
75994;DHT22;64680;53.800;9.988;2023-12-20T10:49:39;4.60;98.00
75994;DHT22;64680;53.800;9.988;2023-12-20T10:52:06;4.50;94.30
75994;DHT22;64680;53.800;9.988;2023-12-20T10:54:32;4.40;94.60
75994;DHT22;64680;53.800;9.988;2023-12-20T10:56:58;4.40;92.70
75994;DHT22;64680;53.800;9.988;2023-12-20T10:59:27;4.30;86.80
75994;DHT22;64680;53.800;9.988;2023-12-20T11:01:55;4.20;84.10
75994;DHT22;64680;53.800;9.988;2023-12-20T11:04:28;4.20;90.10
75994;DHT22;64680;53.800;9.988;2023-12-20T11:06:59;4.20;87.50
75994;DHT22;64680;53.800;9.988;2023-12-20T11:09:42;4.20;87.20
75994;DHT22;64680;53.800;9.988;2023-12-20T11:12:09;4.20;82.80
75994;DHT22;64680;53.800;9.988;2023-12-20T11:14:48;4.20;79.90
75994;DHT22;64680;53.800;9.988;2023-12-20T11:17:14;4.10;82.00
75994;DHT22;64680;53.800;9.988;2023-12-20T11:22:27;4.00;81.70
75994;DHT22;64680;53.800;9.988;2023-12-20T11:25:00;4.00;82.10
75994;DHT22;64680;53.800;9.988;2023-12-20T11:27:27;4.10;85.50
75994;DHT22;64680;53.800;9.988;2023-12-20T11:29:55;4.20;82.90
75994;DHT22;64680;53.800;9.988;2023-12-20T11:37:38;4.30;84.90
75994;DHT22;64680;53.800;9.988;2023-12-20T11:40:11;4.50;82.80
75994;DHT22;64680;53.800;9.988;2023-12-20T11:42:50;4.50;78.70
75994;DHT22;64680;53.800;9.988;2023-12-20T11:45:19;4.60;75.50
75994;DHT22;64680;53.800;9.988;2023-12-20T11:47:49;4.60;73.60
75994;DHT22;64680;53.800;9.988;2023-12-20T11:50:20;4.70;77.60
75994;DHT22;64680;53.800;9.988;2023-12-20T11:52:47;4.70;73.40
75994;DHT22;64680;53.800;9.988;2023-12-20T11:55:13;4.70;72.80
75994;DHT22;64680;53.800;9.988;2023-12-20T11:57:39;4.80;73.80
75994;DHT22;64680;53.800;9.988;2023-12-20T12:00:05;4.90;71.70
75994;DHT22;64680;53.800;9.988;2023-12-20T12:02:31;4.90;70.60
75994;DHT22;64680;53.800;9.988;2023-12-20T12:04:57;5.00;70.80
75994;DHT22;64680;53.800;9.988;2023-12-20T12:07:24;5.00;70.70
75994;DHT22;64680;53.800;9.988;2023-12-20T12:09:49;5.10;71.30
75994;DHT22;64680;53.800;9.988;2023-12-20T12:12:16;5.20;68.00
75994;DHT22;64680;53.800;9.988;2023-12-20T12:14:42;5.30;64.50
75994;DHT22;64680;53.800;9.988;2023-12-20T12:17:14;5.20;61.90
75994;DHT22;64680;53.800;9.988;2023-12-20T12:19:41;5.20;64.90
75994;DHT22;64680;53.800;9.988;2023-12-20T12:22:12;5.20;67.00
75994;DHT22;64680;53.800;9.988;2023-12-20T12:24:46;5.40;66.40
75994;DHT22;64680;53.800;9.988;2023-12-20T12:27:12;5.60;66.20
75994;DHT22;64680;53.800;9.988;2023-12-20T12:29:38;5.70;59.80
75994;DHT22;64680;53.800;9.988;2023-12-20T12:32:05;5.60;58.50
75994;DHT22;64680;53.800;9.988;2023-12-20T12:34:32;5.60;58.30
75994;DHT22;64680;53.800;9.988;2023-12-20T12:36:59;5.70;57.30
75994;DHT22;64680;53.800;9.988;2023-12-20T12:39:25;5.80;52.40
75994;DHT22;64680;53.800;9.988;2023-12-20T12:41:51;5.80;49.40
75994;DHT22;64680;53.800;9.988;2023-12-20T12:44:17;5.70;47.90
75994;DHT22;64680;53.800;9.988;2023-12-20T12:46:46;5.70;51.40
75994;DHT22;64680;53.800;9.988;2023-12-20T12:49:11;5.80;48.50
75994;DHT22;64680;53.800;9.988;2023-12-20T12:51:37;5.80;46.30
75994;DHT22;64680;53.800;9.988;2023-12-20T12:54:03;5.70;49.40
75994;DHT22;64680;53.800;9.988;2023-12-20T12:56:29;5.70;48.00
75994;DHT22;64680;53.800;9.988;2023-12-20T12:58:54;5.60;51.80
75994;DHT22;64680;53.800;9.988;2023-12-20T13:01:23;5.60;52.30
75994;DHT22;64680;53.800;9.988;2023-12-20T13:03:48;5.50;54.80
75994;DHT22;64680;53.800;9.988;2023-12-20T13:06:14;5.50;55.80
75994;DHT22;64680;53.800;9.988;2023-12-20T13:08:40;5.60;56.90
75994;DHT22;64680;53.800;9.988;2023-12-20T13:11:05;5.60;55.80
75994;DHT22;64680;53.800;9.988;2023-12-20T13:13:31;5.60;53.70
75994;DHT22;64680;53.800;9.988;2023-12-20T13:15:57;5.60;52.80
75994;DHT22;64680;53.800;9.988;2023-12-20T13:18:22;5.60;53.80
75994;DHT22;64680;53.800;9.988;2023-12-20T13:20:48;5.70;53.90
75994;DHT22;64680;53.800;9.988;2023-12-20T13:23:14;5.60;54.10
75994;DHT22;64680;53.800;9.988;2023-12-20T13:25:44;5.60;50.60
75994;DHT22;64680;53.800;9.988;2023-12-20T13:28:11;5.60;52.10
75994;DHT22;64680;53.800;9.988;2023-12-20T13:30:37;5.60;53.10
75994;DHT22;64680;53.800;9.988;2023-12-20T13:33:04;5.60;50.50
75994;DHT22;64680;53.800;9.988;2023-12-20T13:35:30;5.60;50.70
75994;DHT22;64680;53.800;9.988;2023-12-20T13:37:57;5.60;47.50
75994;DHT22;64680;53.800;9.988;2023-12-20T13:40:23;5.60;47.40
75994;DHT22;64680;53.800;9.988;2023-12-20T13:42:48;5.60;45.00
75994;DHT22;64680;53.800;9.988;2023-12-20T13:45:14;5.60;45.00
75994;DHT22;64680;53.800;9.988;2023-12-20T13:47:40;5.60;45.10
75994;DHT22;64680;53.800;9.988;2023-12-20T13:50:05;5.50;44.60
75994;DHT22;64680;53.800;9.988;2023-12-20T13:52:31;5.50;44.30
75994;DHT22;64680;53.800;9.988;2023-12-20T13:54:57;5.40;45.10
75994;DHT22;64680;53.800;9.988;2023-12-20T13:57:22;5.40;44.30
75994;DHT22;64680;53.800;9.988;2023-12-20T13:59:48;5.30;44.80
75994;DHT22;64680;53.800;9.988;2023-12-20T14:02:13;5.30;45.20
75994;DHT22;64680;53.800;9.988;2023-12-20T14:04:39;5.30;44.60
75994;DHT22;64680;53.800;9.988;2023-12-20T14:07:05;5.30;46.70
75994;DHT22;64680;53.800;9.988;2023-12-20T14:09:33;5.30;45.70
75994;DHT22;64680;53.800;9.988;2023-12-20T14:11:58;5.30;46.10
75994;DHT22;64680;53.800;9.988;2023-12-20T14:14:24;5.20;47.20
75994;DHT22;64680;53.800;9.988;2023-12-20T14:16:50;5.10;47.60
75994;DHT22;64680;53.800;9.988;2023-12-20T14:19:16;5.10;48.00
75994;DHT22;64680;53.800;9.988;2023-12-20T14:21:43;5.00;46.90
75994;DHT22;64680;53.800;9.988;2023-12-20T14:24:13;5.10;45.90
75994;DHT22;64680;53.800;9.988;2023-12-20T14:26:40;5.00;46.90
75994;DHT22;64680;53.800;9.988;2023-12-20T14:29:06;5.00;47.40
75994;DHT22;64680;53.800;9.988;2023-12-20T14:31:33;4.90;46.30
75994;DHT22;64680;53.800;9.988;2023-12-20T14:33:58;4.90;47.80
75994;DHT22;64680;53.800;9.988;2023-12-20T14:36:24;4.80;47.60
75994;DHT22;64680;53.800;9.988;2023-12-20T14:38:50;4.80;46.20
75994;DHT22;64680;53.800;9.988;2023-12-20T14:41:16;4.80;44.10
75994;DHT22;64680;53.800;9.988;2023-12-20T14:43:43;4.80;45.20
75994;DHT22;64680;53.800;9.988;2023-12-20T14:46:09;4.70;47.10
75994;DHT22;64680;53.800;9.988;2023-12-20T14:48:34;4.70;47.20
75994;DHT22;64680;53.800;9.988;2023-12-20T14:51:00;4.70;47.00
75994;DHT22;64680;53.800;9.988;2023-12-20T14:53:26;4.70;49.00
75994;DHT22;64680;53.800;9.988;2023-12-20T14:55:52;4.60;48.80
75994;DHT22;64680;53.800;9.988;2023-12-20T14:58:17;4.70;49.70
75994;DHT22;64680;53.800;9.988;2023-12-20T15:00:44;4.60;50.50
75994;DHT22;64680;53.800;9.988;2023-12-20T15:03:10;4.60;51.30
75994;DHT22;64680;53.800;9.988;2023-12-20T15:05:35;4.70;51.50
75994;DHT22;64680;53.800;9.988;2023-12-20T15:08:02;4.60;57.90
75994;DHT22;64680;53.800;9.988;2023-12-20T15:10:27;4.50;58.30
75994;DHT22;64680;53.800;9.988;2023-12-20T15:12:53;4.40;61.10
75994;DHT22;64680;53.800;9.988;2023-12-20T15:15:19;4.20;63.50
75994;DHT22;64680;53.800;9.988;2023-12-20T15:17:45;4.10;65.10
75994;DHT22;64680;53.800;9.988;2023-12-20T15:20:11;4.10;66.40
75994;DHT22;64680;53.800;9.988;2023-12-20T15:22:37;4.00;67.30
75994;DHT22;64680;53.800;9.988;2023-12-20T15:25:03;3.90;67.20
75994;DHT22;64680;53.800;9.988;2023-12-20T15:27:31;3.90;67.40
75994;DHT22;64680;53.800;9.988;2023-12-20T15:29:59;3.80;69.10
75994;DHT22;64680;53.800;9.988;2023-12-20T15:32:24;3.70;69.60
75994;DHT22;64680;53.800;9.988;2023-12-20T15:34:50;3.70;70.40
75994;DHT22;64680;53.800;9.988;2023-12-20T15:37:17;3.70;72.40
75994;DHT22;64680;53.800;9.988;2023-12-20T15:39:43;3.60;72.30
75994;DHT22;64680;53.800;9.988;2023-12-20T15:42:08;3.60;74.80
75994;DHT22;64680;53.800;9.988;2023-12-20T15:44:34;3.50;76.70
75994;DHT22;64680;53.800;9.988;2023-12-20T15:46:59;3.50;76.40